createdAt,value
2023-05-04T00:01:32.256Z,7.91
2023-05-04T00:04:05.515Z,7.91
2023-05-04T00:06:52.278Z,7.90
2023-05-04T00:09:25.379Z,7.89
2023-05-04T00:12:13.265Z,7.89
2023-05-04T00:14:46.354Z,7.89
2023-05-04T00:17:33.329Z,7.90
2023-05-04T00:20:06.510Z,7.91
2023-05-04T00:22:53.278Z,7.91
2023-05-04T00:25:26.496Z,7.91
2023-05-04T00:28:13.283Z,7.90
2023-05-04T00:30:46.698Z,7.91
2023-05-04T00:33:33.275Z,7.89
2023-05-04T00:36:13.275Z,7.89
2023-05-04T00:39:01.290Z,7.89
2023-05-04T00:41:41.302Z,7.88
2023-05-04T00:44:35.277Z,7.84
2023-05-04T00:47:29.313Z,7.86
2023-05-04T00:50:24.311Z,7.84
2023-05-04T00:53:20.266Z,7.82
2023-05-04T00:55:53.372Z,7.81
2023-05-04T00:58:41.292Z,7.81
2023-05-04T01:01:21.362Z,7.81
2023-05-04T01:04:15.371Z,7.79
2023-05-04T01:07:31.293Z,7.78
2023-05-04T01:10:14.470Z,7.76
2023-05-04T01:13:07.395Z,7.74
2023-05-04T01:15:41.369Z,7.74
2023-05-04T01:18:30.311Z,7.73
2023-05-04T01:21:10.291Z,7.72
2023-05-04T01:23:57.307Z,7.70
2023-05-04T01:26:41.295Z,7.70
2023-05-04T01:29:45.336Z,7.69
2023-05-04T01:32:35.389Z,7.69
2023-05-04T01:35:09.391Z,7.69
2023-05-04T01:37:56.306Z,7.68
2023-05-04T01:40:29.418Z,7.68
2023-05-04T01:43:16.310Z,7.70
2023-05-04T01:45:56.342Z,7.67
2023-05-04T01:48:43.322Z,7.63
2023-05-04T01:51:23.328Z,7.65
2023-05-04T01:54:10.299Z,7.65
2023-05-04T01:56:43.444Z,7.64
2023-05-04T01:59:30.338Z,7.62
2023-05-04T02:02:03.824Z,7.64
2023-05-04T02:04:50.330Z,7.63
2023-05-04T02:07:23.415Z,7.65
2023-05-04T02:10:10.370Z,7.66
2023-05-04T02:12:50.362Z,7.66
2023-05-04T02:15:44.348Z,7.65
2023-05-04T02:18:31.314Z,7.63
2023-05-04T02:21:04.603Z,7.62
2023-05-04T02:23:51.328Z,7.61
2023-05-04T02:26:24.500Z,7.60
2023-05-04T02:29:12.324Z,7.60
2023-05-04T02:31:45.515Z,7.61
2023-05-04T02:34:25.361Z,7.60
2023-05-04T02:37:07.789Z,7.61
2023-05-04T02:39:47.318Z,7.61
2023-05-04T02:42:27.416Z,7.59
2023-05-04T02:45:07.342Z,7.59
2023-05-04T02:47:47.478Z,7.60
2023-05-04T02:50:27.337Z,7.60
2023-05-04T02:53:14.347Z,7.60
2023-05-04T02:55:47.441Z,7.62
2023-05-04T02:58:34.330Z,7.63
2023-05-04T03:01:07.511Z,7.63
2023-05-04T03:03:54.374Z,7.63
2023-05-04T03:06:34.447Z,7.63
2023-05-04T03:09:14.369Z,7.63
2023-05-04T03:11:54.506Z,7.63
2023-05-04T03:14:34.376Z,7.63
2023-05-04T03:17:21.343Z,7.62
2023-05-04T03:20:01.326Z,7.60
2023-05-04T03:22:48.341Z,7.57
2023-05-04T03:25:21.768Z,7.53
2023-05-04T03:28:08.354Z,7.50
2023-05-04T03:30:41.900Z,7.50
2023-05-04T03:33:28.368Z,7.46
2023-05-04T03:36:01.715Z,7.45
2023-05-04T03:38:48.348Z,7.46
2023-05-04T03:41:22.000Z,7.45
2023-05-04T03:44:08.347Z,7.44
2023-05-04T03:46:48.353Z,7.44
2023-05-04T03:49:35.383Z,7.42
2023-05-04T03:52:08.759Z,7.45
2023-05-04T03:54:55.360Z,7.47
2023-05-04T03:57:28.748Z,7.46
2023-05-04T04:00:15.364Z,7.47
2023-05-04T04:02:48.783Z,7.51
2023-05-04T04:05:35.367Z,7.50
2023-05-04T04:08:08.760Z,7.50
2023-05-04T04:10:55.375Z,7.55
2023-05-04T04:13:35.382Z,7.55
2023-05-04T04:16:16.241Z,7.54
2023-05-04T04:18:57.394Z,7.55
2023-05-04T04:21:37.486Z,7.54
2023-05-04T04:24:17.360Z,7.54
2023-05-04T04:27:00.213Z,7.53
2023-05-04T04:29:43.380Z,7.55
2023-05-04T04:32:30.413Z,7.58
2023-05-04T04:35:11.405Z,7.62
2023-05-04T04:37:51.690Z,7.66
2023-05-04T04:40:31.388Z,7.65
2023-05-04T04:43:11.707Z,7.67
2023-05-04T04:45:51.393Z,7.70
2023-05-04T04:48:38.385Z,7.73
2023-05-04T04:51:12.305Z,7.77
2023-05-04T04:54:02.386Z,7.79
2023-05-04T04:56:40.571Z,7.83
2023-05-04T04:59:27.403Z,7.88
2023-05-04T05:02:01.882Z,7.90
2023-05-04T05:04:48.453Z,7.94
2023-05-04T05:07:21.828Z,7.97
2023-05-04T05:10:08.551Z,7.97
2023-05-04T05:12:41.829Z,7.96
2023-05-04T05:15:28.406Z,8.00
2023-05-04T05:18:11.532Z,8.03
2023-05-04T05:20:51.525Z,8.05
2023-05-04T05:23:31.430Z,8.06
2023-05-04T05:26:11.835Z,8.09
2023-05-04T05:28:51.410Z,8.12
2023-05-04T05:31:38.429Z,8.11
2023-05-04T05:34:11.764Z,8.16
2023-05-04T05:36:58.425Z,8.24
2023-05-04T05:39:41.408Z,8.24
2023-05-04T05:42:28.399Z,8.25
2023-05-04T05:45:03.706Z,8.24
2023-05-04T05:47:50.511Z,8.23
2023-05-04T05:50:24.340Z,8.28
2023-05-04T05:53:11.428Z,8.33
2023-05-04T05:55:46.565Z,8.32
2023-05-04T05:58:33.426Z,8.33
2023-05-04T06:01:06.821Z,8.32
2023-05-04T06:03:56.559Z,8.32
2023-05-04T06:06:50.417Z,8.31
2023-05-04T06:09:37.424Z,8.34
2023-05-04T06:12:13.601Z,8.43
2023-05-04T06:15:00.406Z,8.51
2023-05-04T06:17:33.823Z,8.55
2023-05-04T06:20:20.427Z,8.61
2023-05-04T06:22:53.542Z,8.66
2023-05-04T06:25:40.450Z,8.67
2023-05-04T06:28:20.432Z,8.65
2023-05-04T06:31:08.490Z,8.64
2023-05-04T06:33:48.474Z,8.61
2023-05-04T06:36:35.449Z,8.58
2023-05-04T06:39:15.451Z,8.56
2023-05-04T06:42:12.452Z,8.53
2023-05-04T06:44:59.433Z,8.53
2023-05-04T06:47:32.621Z,8.52
2023-05-04T06:50:20.435Z,8.53
2023-05-04T06:52:56.564Z,8.54
2023-05-04T06:55:44.482Z,8.54
2023-05-04T06:58:25.437Z,8.53
2023-05-04T07:01:16.976Z,8.46
2023-05-04T07:03:51.861Z,8.44
2023-05-04T07:06:38.457Z,8.39
2023-05-04T07:09:11.992Z,8.33
2023-05-04T07:11:58.439Z,8.31
2023-05-04T07:14:31.592Z,8.31
2023-05-04T07:17:18.453Z,8.30
2023-05-04T07:20:01.632Z,8.32
2023-05-04T07:22:48.497Z,8.31
2023-05-04T07:25:28.458Z,8.33
2023-05-04T07:28:15.477Z,8.35
2023-05-04T07:30:55.457Z,8.39
2023-05-04T07:33:42.468Z,8.44
2023-05-04T07:36:16.592Z,8.48
2023-05-04T07:39:03.453Z,8.53
2023-05-04T07:41:43.471Z,8.63
2023-05-04T07:44:30.468Z,8.71
2023-05-04T07:47:14.494Z,8.81
2023-05-04T07:50:01.466Z,8.92
2023-05-04T07:52:41.463Z,9.05
2023-05-04T07:55:28.558Z,9.19
2023-05-04T07:58:01.598Z,9.27
2023-05-04T08:00:48.474Z,9.42
2023-05-04T08:03:28.466Z,9.60
2023-05-04T08:06:22.477Z,9.74
2023-05-04T08:09:09.467Z,9.90
2023-05-04T08:11:42.663Z,9.96
2023-05-04T08:14:29.476Z,10.12
2023-05-04T08:17:09.487Z,10.29
2023-05-04T08:20:03.489Z,10.38
2023-05-04T08:22:50.566Z,10.35
2023-05-04T08:25:23.658Z,10.30
2023-05-04T08:28:10.581Z,10.38
2023-05-04T08:30:50.499Z,10.43
2023-05-04T08:33:44.664Z,10.58
2023-05-04T08:36:38.502Z,10.63
2023-05-04T08:39:25.525Z,10.72
2023-05-04T08:41:58.751Z,10.90
2023-05-04T08:44:45.511Z,10.87
2023-05-04T08:47:18.606Z,10.86
2023-05-04T08:50:05.514Z,11.01
2023-05-04T08:52:38.889Z,11.04
2023-05-04T08:55:26.494Z,11.17
2023-05-04T08:58:00.786Z,11.42
2023-05-04T09:00:49.572Z,11.61
2023-05-04T09:03:30.686Z,11.66
2023-05-04T09:06:24.510Z,11.70
2023-05-04T09:09:18.499Z,11.71
2023-05-04T09:12:05.505Z,11.71
2023-05-04T09:14:41.406Z,11.70
2023-05-04T09:17:31.508Z,12.02
2023-05-04T09:20:07.147Z,12.29
2023-05-04T09:22:53.508Z,12.26
2023-05-04T09:25:27.224Z,12.28
2023-05-04T09:28:13.536Z,12.43
2023-05-04T09:30:48.083Z,12.72
2023-05-04T09:33:34.578Z,12.75
2023-05-04T09:36:21.813Z,12.52
2023-05-04T09:39:18.573Z,12.33
2023-05-04T09:41:51.932Z,12.11
2023-05-04T09:44:39.554Z,11.97
2023-05-04T09:47:12.753Z,11.85
2023-05-04T09:49:59.517Z,11.90
2023-05-04T09:52:45.512Z,12.03
2023-05-04T09:55:40.503Z,12.09
2023-05-04T09:58:28.577Z,12.02
2023-05-04T10:01:01.793Z,11.98
2023-05-04T10:03:50.788Z,11.86
2023-05-04T10:06:44.583Z,11.83
2023-05-04T10:09:42.573Z,11.83
2023-05-04T10:12:36.609Z,12.00
2023-05-04T10:15:24.570Z,12.22
2023-05-04T10:18:28.572Z,12.31
2023-05-04T10:21:33.550Z,12.27
2023-05-04T10:24:51.533Z,12.06
2023-05-04T10:28:41.533Z,12.24
2023-05-04T10:31:28.593Z,12.62
2023-05-04T10:34:01.712Z,12.92
2023-05-04T10:36:48.569Z,13.25
2023-05-04T10:39:26.759Z,13.42
2023-05-04T10:42:14.572Z,13.30
2023-05-04T10:45:10.575Z,13.14
2023-05-04T10:48:11.572Z,12.99
2023-05-04T10:50:58.581Z,12.92
2023-05-04T10:53:38.668Z,13.02
2023-05-04T10:56:30.582Z,13.13
2023-05-04T10:59:21.561Z,13.13
2023-05-04T11:02:09.659Z,13.28
2023-05-04T11:04:51.587Z,13.11
2023-05-04T11:07:52.571Z,12.89
2023-05-04T11:10:39.601Z,12.92
2023-05-04T11:13:17.787Z,12.81
2023-05-04T11:16:04.602Z,12.67
2023-05-04T11:18:47.601Z,12.72
2023-05-04T11:21:41.598Z,12.86
2023-05-04T11:24:39.605Z,13.03
2023-05-04T11:27:43.690Z,13.05
2023-05-04T11:30:48.577Z,13.05
2023-05-04T11:33:42.581Z,13.01
2023-05-04T11:36:38.586Z,13.13
2023-05-04T11:39:33.639Z,13.31
2023-05-04T11:42:20.585Z,13.42
2023-05-04T11:44:53.718Z,13.41
2023-05-04T11:47:40.609Z,13.55
2023-05-04T11:50:23.675Z,13.90
2023-05-04T11:53:13.678Z,13.81
2023-05-04T11:55:47.050Z,13.99
2023-05-04T11:58:33.619Z,13.97
2023-05-04T12:01:06.722Z,14.08
2023-05-04T12:03:54.337Z,13.95
2023-05-04T12:06:47.568Z,13.82
2023-05-04T12:09:34.585Z,13.65
2023-05-04T12:12:14.650Z,13.56
2023-05-04T12:15:08.689Z,13.65
2023-05-04T12:18:03.235Z,13.83
2023-05-04T12:20:57.612Z,13.91
2023-05-04T12:23:45.592Z,13.67
2023-05-04T12:26:26.605Z,13.65
2023-05-04T12:29:20.585Z,13.72
2023-05-04T12:32:07.654Z,13.81
2023-05-04T12:34:40.713Z,13.88
2023-05-04T12:37:27.609Z,13.93
2023-05-04T12:40:00.875Z,13.87
2023-05-04T12:42:48.605Z,13.71
2023-05-04T12:45:22.692Z,13.55
2023-05-04T12:48:09.613Z,13.68
2023-05-04T12:50:42.762Z,13.87
2023-05-04T12:53:32.635Z,14.03
2023-05-04T12:56:06.916Z,14.07
2023-05-04T12:58:53.606Z,14.04
2023-05-04T13:04:21.654Z,13.94
2023-05-04T13:07:15.644Z,13.88
2023-05-04T13:10:02.666Z,13.55
2023-05-04T13:12:43.560Z,13.54
2023-05-04T13:15:39.726Z,13.55
2023-05-04T13:18:33.630Z,13.54
2023-05-04T13:21:20.669Z,13.46
2023-05-04T13:23:53.868Z,13.39
2023-05-04T13:26:40.721Z,13.41
2023-05-04T13:29:13.757Z,13.41
2023-05-04T13:32:00.801Z,13.35
2023-05-04T13:34:40.707Z,13.36
2023-05-04T13:37:24.677Z,13.32
2023-05-04T13:40:11.637Z,13.26
2023-05-04T13:43:05.674Z,13.14
2023-05-04T13:45:59.679Z,13.06
2023-05-04T13:48:46.666Z,12.89
2023-05-04T13:51:26.676Z,12.87
2023-05-04T13:54:14.816Z,12.87
2023-05-04T13:56:54.656Z,12.94
2023-05-04T13:59:44.589Z,13.09
2023-05-04T14:02:29.120Z,13.16
2023-05-04T14:05:22.671Z,13.19
2023-05-04T14:08:16.632Z,13.30
2023-05-04T14:11:03.665Z,13.40
2023-05-04T14:13:43.702Z,13.42
2023-05-04T14:16:30.687Z,13.30
2023-05-04T14:19:03.831Z,13.26
2023-05-04T14:21:50.655Z,13.25
2023-05-04T14:24:24.947Z,13.11
2023-05-04T14:27:11.691Z,13.08
2023-05-04T14:29:51.696Z,13.01
2023-05-04T14:32:45.719Z,12.93
2023-05-04T14:35:39.688Z,12.87
2023-05-04T14:38:33.692Z,12.71
2023-05-04T14:41:27.679Z,12.69
2023-05-04T14:44:14.666Z,12.59
2023-05-04T14:46:48.408Z,12.51
2023-05-04T14:49:37.229Z,12.53
2023-05-04T14:52:11.881Z,12.56
2023-05-04T14:54:58.680Z,12.66
2023-05-04T14:57:38.695Z,12.72
2023-05-04T15:00:32.682Z,12.87
2023-05-04T15:03:26.816Z,12.90
2023-05-04T15:06:20.715Z,13.01
2023-05-04T15:09:14.685Z,13.02
2023-05-04T15:12:01.686Z,13.11
2023-05-04T15:14:34.780Z,13.12
2023-05-04T15:17:21.709Z,13.04
2023-05-04T15:19:54.783Z,12.97
2023-05-04T15:22:41.718Z,12.87
2023-05-04T15:25:15.831Z,12.79
2023-05-04T15:28:02.683Z,12.72
2023-05-04T15:30:42.686Z,12.64
2023-05-04T15:33:36.689Z,12.53
2023-05-04T15:36:23.704Z,12.48
2023-05-04T15:39:03.687Z,12.45
2023-05-04T15:41:57.753Z,12.45
2023-05-04T15:44:51.726Z,12.45
2023-05-04T15:47:45.698Z,12.46
2023-05-04T15:50:39.707Z,12.47
2023-05-04T15:53:26.741Z,12.48
2023-05-04T15:55:59.812Z,12.51
2023-05-04T15:58:46.730Z,12.53
2023-05-04T16:01:19.933Z,12.52
2023-05-04T16:04:06.731Z,12.49
2023-05-04T16:06:39.888Z,12.43
2023-05-04T16:09:27.702Z,12.36
2023-05-04T16:12:00.821Z,12.31
2023-05-04T16:14:47.726Z,12.29
2023-05-04T16:17:20.884Z,12.25
2023-05-04T16:20:11.698Z,12.19
2023-05-04T16:22:44.938Z,12.16
2023-05-04T16:25:31.774Z,12.11
2023-05-04T16:28:11.731Z,12.06
2023-05-04T16:31:05.795Z,11.99
2023-05-04T16:33:53.728Z,11.91
2023-05-04T16:36:26.926Z,11.87
2023-05-04T16:39:13.744Z,11.86
2023-05-04T16:41:54.744Z,11.83
2023-05-04T16:44:48.773Z,11.78
2023-05-04T16:47:35.825Z,11.73
2023-05-04T16:50:08.975Z,11.66
2023-05-04T16:52:55.749Z,11.59
2023-05-04T16:55:35.874Z,11.52
2023-05-04T16:58:22.738Z,11.45
2023-05-04T17:00:55.992Z,11.40
2023-05-04T17:03:42.823Z,11.34
2023-05-04T17:06:16.058Z,11.27
2023-05-04T17:09:02.758Z,11.22
2023-05-04T17:11:37.938Z,11.16
2023-05-04T17:14:24.751Z,11.10
2023-05-04T17:17:04.795Z,11.04
2023-05-04T17:19:51.764Z,10.99
2023-05-04T17:22:31.812Z,10.95
2023-05-04T17:25:19.782Z,10.88
2023-05-04T17:27:52.908Z,10.83
2023-05-04T17:30:41.737Z,10.76
2023-05-04T17:33:14.956Z,10.68
2023-05-04T17:36:01.792Z,10.63
2023-05-04T17:38:34.924Z,10.56
2023-05-04T17:41:22.875Z,10.51
2023-05-04T17:43:56.850Z,10.44
2023-05-04T17:46:43.764Z,10.34
2023-05-04T17:49:25.800Z,10.26
2023-05-04T17:52:19.780Z,10.15
2023-05-04T17:55:06.761Z,10.08
2023-05-04T17:57:39.846Z,9.97
2023-05-04T18:00:27.774Z,9.89
2023-05-04T18:03:01.065Z,9.80
2023-05-04T18:05:54.793Z,9.75
2023-05-04T18:08:48.755Z,9.65
2023-05-04T18:11:35.749Z,9.54
2023-05-04T18:14:08.949Z,9.46
2023-05-04T18:16:55.768Z,9.34
2023-05-04T18:19:29.576Z,9.25
2023-05-04T18:22:16.895Z,9.16
2023-05-04T18:24:50.088Z,9.09
2023-05-04T18:27:40.929Z,8.99
2023-05-04T18:30:15.981Z,8.95
2023-05-04T18:33:03.122Z,8.90
2023-05-04T18:35:38.050Z,8.88
2023-05-04T18:38:25.262Z,8.83
2023-05-04T18:41:02.278Z,8.76
2023-05-04T18:43:49.963Z,8.71
2023-05-04T18:46:23.751Z,8.69
2023-05-04T18:49:12.497Z,8.65
2023-05-04T18:51:52.940Z,8.59
2023-05-04T18:54:39.848Z,8.56
2023-05-04T18:57:13.080Z,8.53
2023-05-04T19:00:00.776Z,8.50
2023-05-04T19:02:40.878Z,8.48
2023-05-04T19:05:34.843Z,8.42
2023-05-04T19:08:21.824Z,8.34
2023-05-04T19:10:56.448Z,8.28
2023-05-04T19:13:42.801Z,8.23
2023-05-04T19:16:20.080Z,8.16
2023-05-04T19:19:06.796Z,8.10
2023-05-04T19:21:42.978Z,8.01
2023-05-04T19:24:29.808Z,7.97
2023-05-04T19:27:11.828Z,7.93
2023-05-04T19:30:05.995Z,7.90
2023-05-04T19:32:59.827Z,7.85
2023-05-04T19:35:53.802Z,7.82
2023-05-04T19:38:47.869Z,7.75
2023-05-04T19:41:35.829Z,7.71
2023-05-04T19:44:10.355Z,7.67
2023-05-04T19:46:57.843Z,7.61
2023-05-04T19:49:32.078Z,7.57
2023-05-04T19:52:18.818Z,7.50
2023-05-04T19:54:59.803Z,7.47
2023-05-04T19:57:56.803Z,7.43
2023-05-04T20:00:52.916Z,7.39
2023-05-04T20:03:40.888Z,7.35
2023-05-04T20:06:14.138Z,7.29
2023-05-04T20:09:01.867Z,7.22
2023-05-04T20:11:36.089Z,7.15
2023-05-04T20:14:22.815Z,7.06
2023-05-04T20:16:58.180Z,7.01
2023-05-04T20:19:45.807Z,6.95
2023-05-04T20:22:20.972Z,6.89
2023-05-04T20:25:07.826Z,6.82
2023-05-04T20:27:47.825Z,6.78
2023-05-04T20:30:41.851Z,6.72
2023-05-04T20:33:28.833Z,6.68
2023-05-04T20:36:02.574Z,6.63
2023-05-04T20:38:48.820Z,6.57
2023-05-04T20:41:22.389Z,6.54
2023-05-04T20:44:01.830Z,6.52
2023-05-04T20:46:41.855Z,6.52
2023-05-04T20:49:15.067Z,6.47
2023-05-04T20:52:17.890Z,6.39
2023-05-04T20:55:04.915Z,6.35
2023-05-04T20:57:44.909Z,6.34
2023-05-04T21:00:33.428Z,6.29
2023-05-04T21:03:07.062Z,6.24
2023-05-04T21:06:00.814Z,6.20
2023-05-04T21:08:54.850Z,6.14
2023-05-04T21:11:41.845Z,6.07
2023-05-04T21:14:15.317Z,6.01
2023-05-04T21:17:01.896Z,5.98
2023-05-04T21:19:41.840Z,5.96
2023-05-04T21:22:35.867Z,5.95
2023-05-04T21:25:23.873Z,5.94
2023-05-04T21:27:58.225Z,5.88
2023-05-04T21:30:48.839Z,5.81
2023-05-04T21:33:28.972Z,5.78
2023-05-04T21:36:29.849Z,5.75
2023-05-04T21:39:17.852Z,5.73
2023-05-04T21:41:51.038Z,5.70
2023-05-04T21:44:37.978Z,5.71
2023-05-04T21:47:11.140Z,5.72
2023-05-04T21:49:58.903Z,5.70
2023-05-04T21:52:31.951Z,5.68
2023-05-04T21:55:18.853Z,5.63
2023-05-04T21:57:51.943Z,5.61
2023-05-04T22:00:39.897Z,5.59
2023-05-04T22:03:12.961Z,5.60
2023-05-04T22:06:07.881Z,5.59
2023-05-04T22:09:01.898Z,5.56
2023-05-04T22:11:55.851Z,5.50
2023-05-04T22:14:42.858Z,5.43
2023-05-04T22:17:15.967Z,5.38
2023-05-04T22:20:02.894Z,5.33
2023-05-04T22:22:51.881Z,5.29
2023-05-04T22:25:38.874Z,5.23
2023-05-04T22:28:12.969Z,5.18
2023-05-04T22:30:59.889Z,5.11
2023-05-04T22:33:33.001Z,5.06
2023-05-04T22:36:19.880Z,5.02
2023-05-04T22:38:53.029Z,5.02
2023-05-04T22:41:39.866Z,5.02
2023-05-04T22:44:12.976Z,5.01
2023-05-04T22:46:59.898Z,5.01
2023-05-04T22:49:32.989Z,5.00
2023-05-04T22:52:19.972Z,4.96
2023-05-04T22:54:52.994Z,4.93
2023-05-04T22:57:39.885Z,4.90
2023-05-04T23:00:20.903Z,4.87
2023-05-04T23:03:14.969Z,4.84
2023-05-04T23:06:11.900Z,4.82
2023-05-04T23:09:05.912Z,4.83
2023-05-04T23:11:52.899Z,4.78
2023-05-04T23:14:26.706Z,4.74
2023-05-04T23:17:13.879Z,4.68
2023-05-04T23:19:53.894Z,4.65
2023-05-04T23:22:40.880Z,4.59
2023-05-04T23:25:20.912Z,4.56
2023-05-04T23:28:07.888Z,4.53
2023-05-04T23:30:41.080Z,4.48
2023-05-04T23:33:27.901Z,4.45
2023-05-04T23:36:01.987Z,4.45
2023-05-04T23:38:48.901Z,4.46
2023-05-04T23:41:28.907Z,4.47
2023-05-04T23:44:22.911Z,4.44
2023-05-04T23:47:16.899Z,4.41
2023-05-04T23:50:10.926Z,4.41
2023-05-04T23:53:04.908Z,4.40
2023-05-04T23:55:59.701Z,4.37
2023-05-04T23:58:55.908Z,4.36
